Bei Facebook empfehlenBei Twitter postenGoogle plusPinterest

Das Wetter im Erzgebirge am 31.12.2014

Wetter und Klima am 31.12.2014 Holzhau im Erzgebirge (630m ü.NN)
Letzte gemessene Temperatur und Uhrzeit der Messung23:45:00 Uhr0.20 °C
Temperatur (Maximum / Höchstwert) und Uhrzeit der Messung13:30:00 Uhr0.50 °C
Temperatur (Minimum / Tiefstwert) und Uhrzeit der Messung00:00:00-1.90 °C
Errechneter Absolutwert der Temperaturschwankungen zwischen Tmin und Tmax des Tages2.40 K
Errechnete Tagesmitteltemperatur-0.42708 °C
Gesamt - Niederschlag des Tages (in flüssiger Form)0.00 Liter / m²
Luftdruck (Maximum / Höchstwert) und Zeitpunkt der Messung23:45:00 Uhr1028.50 hPa
Luftdruck (Minimum / Tiefstwert) und Zeitpunkt der Messung00:45:00 Uhr1025.00 hPa
Errechneter Absolutwert der Luftdruckschwankungen des Tages3.50 hPa
Höchste gemessene Windgeschwindigkeit und Uhrzeit der Messung23:45:00 Uhr0.00 km/h
Errechnete Windhäufigkeit in Relation zu den Messwerten des Tages0.00000 %
Niedrigste Windkühle (Windchill) und Zeitpunkt der Messung00:00:00 Uhr-1.90 °C
Taupunkt (Maximum / Höchstwert) und Uhrzeit der Messung13:30:00 Uhr-0.40 °C
Taupunkt (Minimum / Tiefstwert) und Uhrzeit der Messung00:00:00-3.00 °C
Anzahl der automatisch eingelesenen Messwerte 96

Detaillierte Wetter- und Klima- Messwerte für den 31.12.2014 in Holzhau im Erzgebirge (630m ü.NN)
ZeitTemperaturLuftdruckRel. LuftfeuchteWindWindrichtungWindchillTaupunktNiederschlag l/m²
23:45:000.20 °C1028.50 hPa94.00 %-0.60 °C 
23:30:000.20 °C1028.50 hPa94.00 %-0.60 °C 
23:15:000.20 °C1028.40 hPa94.00 %-0.60 °C 
23:00:000.20 °C1028.30 hPa94.00 %-0.60 °C 
22:45:000.20 °C1028.40 hPa94.00 %-0.60 °C 
22:30:000.20 °C1028.30 hPa94.00 %-0.60 °C 
22:15:000.20 °C1028.20 hPa94.00 %-0.60 °C 
22:00:000.20 °C1028.30 hPa94.00 %-0.60 °C 
21:45:000.20 °C1028.20 hPa94.00 %-0.60 °C 
21:30:000.20 °C1028.20 hPa94.00 %-0.60 °C 
21:15:000.20 °C1028.10 hPa94.00 %-0.60 °C 
21:00:000.20 °C1027.70 hPa94.00 %-0.60 °C 
20:45:000.20 °C1027.80 hPa94.00 %-0.60 °C 
20:30:000.20 °C1027.70 hPa94.00 %-0.60 °C 
20:15:000.20 °C1027.60 hPa94.00 %-0.60 °C 
20:00:000.10 °C1027.40 hPa94.00 %-0.70 °C 
19:45:000.20 °C1027.30 hPa94.00 %-0.60 °C 
19:30:000.10 °C1027.40 hPa94.00 %-0.70 °C 
19:15:000.10 °C1027.10 hPa94.00 %-0.70 °C 
19:00:000.20 °C1027.30 hPa94.00 %-0.60 °C 
18:45:000.20 °C1027.30 hPa94.00 %-0.60 °C 
18:30:000.10 °C1027.30 hPa94.00 %-0.70 °C 
18:15:000.10 °C1027.30 hPa94.00 %-0.70 °C 
18:00:000.10 °C1027.60 hPa94.00 %-0.70 °C 
17:45:000.10 °C1027.50 hPa94.00 %-0.70 °C 
17:30:000.10 °C1027.30 hPa94.00 %-0.70 °C 
17:15:000.10 °C1027.20 hPa94.00 %-0.70 °C 
17:00:000.10 °C1027.00 hPa94.00 %-0.70 °C 
16:45:000.10 °C1027.00 hPa94.00 %-0.70 °C 
16:30:000.10 °C1026.90 hPa94.00 %-0.70 °C 
16:15:000.10 °C1026.80 hPa93.00 %-0.90 °C 
16:00:000.10 °C1026.70 hPa94.00 %-0.70 °C 
15:45:000.10 °C1026.70 hPa93.00 %-0.90 °C 
15:30:000.10 °C1026.90 hPa93.00 %-0.90 °C 
15:15:000.20 °C1026.80 hPa93.00 %-0.80 °C 
15:00:000.20 °C1026.60 hPa93.00 %-0.80 °C 
14:45:000.30 °C1026.40 hPa93.00 %-0.70 °C 
14:30:000.40 °C1026.40 hPa93.00 %-0.60 °C 
14:15:000.40 °C1026.20 hPa93.00 %-0.60 °C 
14:00:000.40 °C1026.30 hPa93.00 %-0.60 °C 
13:45:000.40 °C1026.40 hPa94.00 %-0.50 °C 
13:30:000.50 °C1026.40 hPa94.00 %-0.40 °C 
13:15:000.50 °C1026.60 hPa94.00 %-0.40 °C 
13:00:000.40 °C1026.90 hPa94.00 %-0.50 °C 
12:45:000.40 °C1026.70 hPa94.00 %-0.50 °C 
12:30:000.40 °C1026.90 hPa94.00 %-0.50 °C 
12:15:000.40 °C1027.10 hPa94.00 %-0.50 °C 
12:00:000.50 °C1026.60 hPa94.00 %-0.40 °C 
11:45:000.40 °C1026.90 hPa94.00 %-0.50 °C 
11:30:000.30 °C1026.90 hPa94.00 %-0.50 °C 
11:15:000.10 °C1026.80 hPa94.00 %-0.70 °C 
11:00:00-0.20 °C1027.00 hPa94.00 %-1.10 °C 
10:45:00-0.40 °C1026.70 hPa94.00 %-1.30 °C 
10:30:00-0.60 °C1027.00 hPa94.00 %-1.50 °C 
10:15:00-0.60 °C1026.80 hPa94.00 %-1.50 °C 
10:00:00-0.70 °C1026.60 hPa94.00 %-1.60 °C 
09:45:00-0.80 °C1026.40 hPa94.00 %-1.70 °C 
09:30:00-0.90 °C1026.50 hPa94.00 %-1.80 °C 
09:15:00-1.10 °C1026.30 hPa94.00 %-2.00 °C 
09:00:00-1.20 °C1026.30 hPa94.00 %-2.10 °C 
08:45:00-1.40 °C1026.50 hPa94.00 %-2.30 °C 
08:30:00-1.40 °C1026.40 hPa94.00 %-2.30 °C 
08:15:00-1.50 °C1026.60 hPa94.00 %-2.40 °C 
08:00:00-1.60 °C1026.40 hPa94.00 %-2.50 °C 
07:45:00-1.60 °C1026.30 hPa94.00 %-2.50 °C 
07:30:00-1.60 °C1026.30 hPa94.00 %-2.50 °C 
07:15:00-1.60 °C1026.20 hPa94.00 %-2.50 °C 
07:00:00-1.60 °C1026.20 hPa94.00 %-2.50 °C 
06:45:00-1.60 °C1025.90 hPa94.00 %-2.50 °C 
06:30:00-1.50 °C1025.80 hPa94.00 %-2.40 °C 
06:15:00-1.40 °C1025.80 hPa94.00 %-2.30 °C 
06:00:00-1.30 °C1025.90 hPa94.00 %-2.20 °C 
05:45:00-1.30 °C1025.80 hPa94.00 %-2.20 °C 
05:30:00-1.20 °C1026.00 hPa94.00 %-2.10 °C 
05:15:00-1.20 °C1026.10 hPa94.00 %-2.10 °C 
05:00:00-1.20 °C1026.00 hPa93.00 %-2.30 °C 
04:45:00-1.20 °C1026.10 hPa93.00 %-2.30 °C 
04:30:00-1.10 °C1026.20 hPa93.00 %-2.20 °C 
04:15:00-1.10 °C1025.90 hPa93.00 %-2.20 °C 
04:00:00-1.10 °C1025.60 hPa93.00 %-2.20 °C 
03:45:00-1.10 °C1025.80 hPa93.00 %-2.20 °C 
03:30:00-1.00 °C1026.10 hPa93.00 %-2.10 °C 
03:15:00-0.90 °C1025.80 hPa93.00 %-2.00 °C 
03:00:00-0.90 °C1025.80 hPa93.00 %-2.00 °C 
02:45:00-0.90 °C1025.70 hPa93.00 %-2.00 °C 
02:30:00-0.90 °C1025.50 hPa93.00 %-2.00 °C 
02:15:00-1.00 °C1025.40 hPa93.00 %-2.10 °C 
02:00:00-1.00 °C1025.50 hPa93.00 %-2.10 °C 
01:45:00-1.10 °C1025.30 hPa93.00 %-2.20 °C 
01:30:00-1.10 °C1025.30 hPa93.00 %-2.20 °C 
01:15:00-1.10 °C1025.10 hPa93.00 %-2.20 °C 
01:00:00-1.20 °C1025.10 hPa93.00 %-2.30 °C 
00:45:00-1.30 °C1025.00 hPa93.00 %-2.40 °C 
00:30:00-1.40 °C1025.00 hPa93.00 %-2.50 °C 
00:15:00-1.60 °C1025.10 hPa93.00 %-2.70 °C 
00:00:00-1.90 °C1025.10 hPa93.00 %-3.00 °C 

Permanenter Link zu dieser Seite: Wetter im Erzgebirge am 31.12.2014
Performance-Info: Die Erstellung der Seite / Statistik(en) / Tabelle(n) erforderte 5 Datenbankserver-Abfrage(n) und dauerte 103 Millisekunden. (Dieser Messwert ist von der Gesamt-Auslastung des Servers abhängig.)
Erzgebirge - Wetter | Erzgebirge - Wetter (Mobilgeräte) | Komplette Klimadatenbank